createdAt,value
2023-02-12T00:00:15.540Z,606.00
2023-02-12T00:01:15.594Z,607.00
2023-02-12T00:02:15.661Z,603.00
2023-02-12T00:03:15.662Z,602.00
2023-02-12T00:04:15.688Z,603.00
2023-02-12T00:05:15.737Z,603.00
2023-02-12T00:06:16.223Z,602.00
2023-02-12T00:07:15.852Z,603.00
2023-02-12T00:08:15.901Z,603.00
2023-02-12T00:09:15.950Z,603.00
2023-02-12T00:10:15.989Z,603.00
2023-02-12T00:11:16.023Z,603.00
2023-02-12T00:12:16.064Z,604.00
2023-02-12T00:13:16.133Z,605.00
2023-02-12T00:14:16.202Z,607.00
2023-02-12T00:15:16.257Z,606.00
2023-02-12T00:16:16.411Z,607.00
2023-02-12T00:17:16.382Z,608.00
2023-02-12T00:18:16.464Z,607.00
2023-02-12T00:19:16.508Z,605.00
2023-02-12T00:20:16.565Z,604.00
2023-02-12T00:21:16.890Z,605.00
2023-02-12T00:22:16.681Z,604.00
2023-02-12T00:23:16.744Z,602.00
2023-02-12T00:24:16.809Z,603.00
2023-02-12T00:25:16.872Z,598.00
2023-02-12T00:26:16.930Z,595.00
2023-02-12T00:27:16.988Z,598.00
2023-02-12T00:28:17.081Z,598.00
2023-02-12T00:29:17.084Z,599.00
2023-02-12T00:30:17.161Z,597.00
2023-02-12T00:31:17.372Z,597.00
2023-02-12T00:32:17.272Z,599.00
2023-02-12T00:33:17.328Z,599.00
2023-02-12T00:34:17.348Z,601.00
2023-02-12T00:35:17.370Z,601.00
2023-02-12T00:36:17.439Z,602.00
2023-02-12T00:37:17.497Z,605.00
2023-02-12T00:38:17.572Z,602.00
2023-02-12T00:39:17.658Z,600.00
2023-02-12T00:40:17.731Z,601.00
2023-02-12T00:41:17.783Z,602.00
2023-02-12T00:42:17.849Z,602.00
2023-02-12T00:43:17.905Z,602.00
2023-02-12T00:44:17.930Z,602.00
2023-02-12T00:45:17.994Z,603.00
2023-02-12T00:46:18.125Z,601.00
2023-02-12T00:47:18.099Z,598.00
2023-02-12T00:48:18.120Z,599.00
2023-02-12T00:49:18.171Z,600.00
2023-02-12T00:50:18.206Z,601.00
2023-02-12T00:51:18.273Z,600.00
2023-02-12T00:52:18.325Z,599.00
2023-02-12T00:53:18.368Z,600.00
2023-02-12T00:54:18.416Z,599.00
2023-02-12T03:26:25.190Z,579.00
2023-02-12T03:27:25.318Z,580.00
2023-02-12T03:28:25.330Z,585.00
2023-02-12T03:29:25.332Z,587.00
2023-02-12T03:30:25.345Z,585.00
2023-02-12T03:31:25.369Z,586.00
2023-02-12T03:32:25.356Z,588.00
2023-02-12T03:33:25.373Z,588.00
2023-02-12T03:34:25.387Z,587.00
2023-02-12T03:35:25.374Z,588.00
2023-02-12T03:36:25.459Z,590.00
2023-02-12T03:37:25.427Z,589.00
2023-02-12T03:38:25.459Z,589.00
2023-02-12T03:39:25.514Z,589.00
2023-02-12T03:40:25.556Z,588.00
2023-02-12T03:41:25.613Z,588.00
2023-02-12T03:42:25.635Z,590.00
2023-02-12T03:43:25.648Z,591.00
2023-02-12T03:44:25.689Z,590.00
2023-02-12T03:45:25.717Z,591.00
2023-02-12T03:46:25.724Z,590.00
2023-02-12T03:47:25.739Z,589.00
2023-02-12T03:48:25.769Z,588.00
2023-02-12T03:49:25.801Z,589.00
2023-02-12T03:50:25.833Z,590.00
2023-02-12T03:51:25.859Z,589.00
2023-02-12T03:52:25.880Z,588.00
2023-02-12T03:53:25.931Z,588.00
2023-02-12T03:54:25.946Z,589.00
2023-02-12T03:55:25.962Z,585.00
2023-02-12T03:56:25.989Z,586.00
2023-02-12T03:57:26.009Z,585.00
2023-02-12T03:58:26.041Z,586.00
2023-02-12T03:59:26.092Z,587.00
2023-02-12T04:00:26.125Z,581.00
2023-02-12T04:01:26.256Z,581.00
2023-02-12T04:02:26.200Z,578.00
2023-02-12T04:03:26.236Z,578.00
2023-02-12T04:04:26.330Z,581.00
2023-02-12T04:05:26.327Z,581.00
2023-02-12T04:06:26.361Z,585.00
2023-02-12T04:07:26.397Z,584.00
2023-02-12T04:08:26.432Z,584.00
2023-02-12T04:09:26.498Z,584.00
2023-02-12T04:10:26.568Z,585.00
2023-02-12T04:11:26.621Z,584.00
2023-02-12T04:12:26.660Z,585.00
2023-02-12T04:13:26.701Z,585.00
2023-02-12T04:14:26.769Z,585.00
2023-02-12T04:15:26.835Z,584.00
2023-02-12T04:16:26.928Z,581.00
2023-02-12T04:17:26.936Z,579.00
2023-02-12T04:18:26.953Z,580.00
2023-02-12T04:19:27.090Z,582.00
2023-02-12T04:20:27.041Z,585.00
2023-02-12T04:21:27.072Z,585.00
2023-02-12T04:22:27.084Z,584.00
2023-02-12T04:23:27.172Z,584.00
2023-02-12T04:24:27.212Z,586.00
2023-02-12T04:25:27.276Z,582.00
2023-02-12T04:26:27.342Z,584.00
2023-02-12T04:27:27.389Z,581.00
2023-02-12T04:28:27.494Z,580.00
2023-02-12T04:29:27.447Z,582.00
2023-02-12T04:30:27.571Z,580.00
2023-02-12T04:31:27.706Z,578.00
2023-02-12T04:32:27.587Z,581.00
2023-02-12T04:33:27.665Z,582.00
2023-02-12T04:34:27.717Z,584.00
2023-02-12T04:35:27.753Z,582.00
2023-02-12T04:36:27.778Z,582.00
2023-02-12T04:37:27.813Z,584.00
2023-02-12T04:38:27.881Z,583.00
2023-02-12T08:17:35.187Z,568.00
2023-02-12T08:18:35.230Z,566.00
2023-02-12T08:19:35.237Z,569.00
2023-02-12T08:20:35.275Z,570.00
2023-02-12T08:21:35.286Z,571.00
2023-02-12T08:22:35.289Z,570.00
2023-02-12T08:23:35.287Z,571.00
2023-02-12T08:24:35.310Z,568.00
2023-02-12T08:25:35.313Z,570.00
2023-02-12T08:26:35.343Z,570.00
2023-02-12T08:27:35.366Z,569.00
2023-02-12T08:28:35.492Z,567.00
2023-02-12T08:29:35.425Z,568.00
2023-02-12T08:30:35.432Z,567.00
2023-02-12T08:31:35.529Z,566.00
2023-02-12T08:32:35.522Z,567.00
2023-02-12T08:33:35.558Z,568.00
2023-02-12T08:34:35.584Z,570.00
2023-02-12T08:35:35.602Z,569.00
2023-02-12T08:36:35.638Z,566.00
2023-02-12T08:37:35.660Z,564.00
2023-02-12T08:38:35.691Z,566.00
2023-02-12T08:39:35.723Z,566.00
2023-02-12T08:40:35.794Z,565.00
2023-02-12T08:41:35.832Z,567.00
2023-02-12T08:42:35.845Z,567.00
2023-02-12T08:43:35.868Z,565.00
2023-02-12T08:44:35.912Z,564.00
2023-02-12T08:45:35.958Z,565.00
2023-02-12T08:46:36.113Z,564.00
2023-02-12T08:47:36.022Z,565.00
2023-02-12T08:48:36.083Z,567.00
2023-02-12T08:49:36.138Z,570.00
2023-02-12T08:50:36.150Z,571.00
2023-02-12T08:51:36.177Z,572.00
2023-02-12T08:52:36.222Z,569.00
2023-02-12T08:53:36.258Z,569.00
2023-02-12T08:54:36.294Z,574.00
2023-02-12T08:55:36.326Z,570.00
2023-02-12T08:56:36.367Z,573.00
2023-02-12T08:57:36.421Z,574.00
2023-02-12T08:58:36.488Z,573.00
2023-02-12T08:59:36.544Z,573.00
2023-02-12T09:00:38.868Z,574.00
2023-02-12T09:01:36.620Z,573.00
2023-02-12T09:02:36.644Z,573.00
2023-02-12T09:03:36.589Z,569.00
2023-02-12T09:04:36.593Z,569.00
2023-02-12T09:05:36.611Z,567.00
2023-02-12T09:06:36.597Z,568.00
2023-02-12T09:07:36.563Z,562.00
2023-02-12T09:08:36.554Z,562.00
2023-02-12T09:09:36.553Z,559.00
2023-02-12T09:10:36.553Z,562.00
2023-02-12T09:11:36.543Z,563.00
2023-02-12T09:12:36.537Z,565.00
2023-02-12T09:13:36.538Z,564.00
2023-02-12T09:14:36.549Z,564.00
2023-02-12T09:15:36.541Z,565.00
2023-02-12T09:16:36.581Z,567.00
2023-02-12T09:17:36.538Z,568.00
2023-02-12T09:18:36.540Z,568.00
2023-02-12T09:19:36.538Z,565.00
2023-02-12T09:20:36.548Z,563.00
2023-02-12T09:21:36.539Z,563.00
2023-02-12T09:22:36.540Z,566.00
2023-02-12T09:23:36.525Z,565.00
2023-02-12T09:24:36.523Z,568.00
2023-02-12T09:25:36.513Z,568.00
2023-02-12T09:26:36.518Z,567.00
2023-02-12T09:27:36.507Z,565.00
2023-02-12T09:28:36.666Z,561.00
2023-02-12T09:29:36.521Z,562.00
2023-02-12T09:30:36.566Z,565.00
2023-02-12T09:31:36.665Z,564.00
2023-02-12T09:32:36.503Z,563.00
2023-02-12T09:33:36.502Z,564.00
2023-02-12T09:34:36.499Z,565.00
2023-02-12T09:35:36.524Z,564.00
2023-02-12T09:36:36.509Z,559.00
2023-02-12T09:37:36.504Z,557.00
2023-02-12T09:38:36.496Z,558.00
2023-02-12T09:39:36.489Z,560.00
2023-02-12T09:40:36.488Z,560.00
2023-02-12T09:41:36.498Z,562.00
2023-02-12T09:42:36.485Z,564.00
2023-02-12T09:43:36.494Z,560.00
2023-02-12T09:44:36.492Z,559.00
2023-02-12T09:45:36.495Z,559.00
2023-02-12T09:46:36.549Z,561.00
2023-02-12T09:47:36.501Z,560.00
2023-02-12T09:48:36.506Z,561.00
2023-02-12T09:49:36.515Z,565.00
2023-02-12T09:50:36.511Z,566.00
2023-02-12T09:51:36.510Z,562.00
2023-02-12T09:52:36.510Z,562.00
2023-02-12T09:53:36.510Z,562.00
2023-02-12T09:54:36.497Z,562.00
2023-02-12T09:55:36.499Z,561.00
2023-02-12T09:56:36.502Z,559.00
2023-02-12T09:57:36.484Z,560.00
2023-02-12T09:58:36.535Z,562.00
2023-02-12T09:59:36.583Z,562.00
2023-02-12T10:00:36.650Z,561.00
2023-02-12T10:01:36.762Z,558.00
2023-02-12T10:02:36.805Z,558.00
2023-02-12T10:03:36.851Z,561.00
2023-02-12T10:04:36.946Z,564.00
2023-02-12T10:05:36.944Z,563.00
2023-02-12T10:06:37.001Z,560.00
2023-02-12T10:07:37.048Z,560.00
2023-02-12T10:08:37.102Z,559.00
2023-02-12T10:09:37.150Z,560.00
2023-02-12T10:10:37.204Z,556.00
2023-02-12T10:11:37.295Z,555.00
2023-02-12T10:12:37.304Z,556.00
2023-02-12T13:47:45.208Z,542.00
2023-02-12T13:48:45.286Z,541.00
2023-02-12T13:49:45.342Z,540.00
2023-02-12T13:50:45.436Z,539.00
2023-02-12T13:51:45.473Z,539.00
2023-02-12T13:52:45.532Z,541.00
2023-02-12T13:53:45.610Z,542.00
2023-02-12T13:54:45.665Z,544.00
2023-02-12T13:55:45.731Z,542.00
2023-02-12T13:56:45.811Z,543.00
2023-02-12T13:57:45.857Z,544.00
2023-02-12T13:58:45.919Z,548.00
2023-02-12T13:59:45.986Z,548.00
2023-02-12T14:00:46.042Z,547.00
2023-02-12T14:01:47.390Z,548.00
2023-02-12T14:02:46.203Z,546.00
2023-02-12T14:03:46.229Z,544.00
2023-02-12T14:04:46.280Z,543.00
2023-02-12T14:05:46.342Z,543.00
2023-02-12T14:06:46.408Z,541.00
2023-02-12T14:07:46.478Z,541.00
2023-02-12T14:08:46.533Z,541.00
2023-02-12T14:09:46.615Z,540.00
2023-02-12T14:10:46.659Z,542.00
2023-02-12T14:11:46.716Z,543.00
2023-02-12T14:12:46.784Z,544.00
2023-02-12T14:13:46.845Z,542.00
2023-02-12T14:14:46.904Z,543.00
2023-02-12T14:15:47.036Z,546.00
2023-02-12T14:16:47.020Z,548.00
2023-02-12T14:17:48.602Z,546.00
2023-02-12T14:18:47.046Z,546.00
2023-02-12T14:19:47.040Z,543.00
2023-02-12T14:20:47.034Z,546.00
2023-02-12T14:21:47.022Z,545.00
2023-02-12T14:22:47.003Z,545.00
2023-02-12T14:23:47.009Z,545.00
2023-02-12T14:24:46.993Z,544.00
2023-02-12T14:25:47.026Z,545.00
2023-02-12T14:26:46.981Z,543.00
2023-02-12T14:27:46.979Z,542.00
2023-02-12T14:28:46.966Z,544.00
2023-02-12T14:29:46.958Z,543.00
2023-02-12T14:30:46.993Z,542.00
2023-02-12T14:31:47.020Z,541.00
2023-02-12T14:32:46.931Z,540.00
2023-02-12T14:33:46.925Z,541.00
2023-02-12T14:34:46.923Z,544.00
2023-02-12T14:35:46.922Z,545.00
2023-02-12T14:36:46.911Z,545.00
2023-02-12T14:37:46.902Z,545.00
2023-02-12T14:38:47.824Z,548.00
2023-02-12T14:39:46.888Z,547.00
2023-02-12T14:40:46.901Z,547.00
2023-02-12T14:41:46.875Z,545.00
2023-02-12T14:42:46.865Z,545.00
2023-02-12T14:43:46.863Z,542.00
2023-02-12T14:44:46.856Z,546.00
2023-02-12T14:45:46.858Z,547.00
2023-02-12T14:46:46.869Z,546.00
2023-02-12T14:47:46.845Z,549.00
2023-02-12T14:48:46.845Z,548.00
2023-02-12T14:49:46.849Z,545.00
2023-02-12T14:50:46.834Z,544.00
2023-02-12T14:51:46.833Z,545.00
2023-02-12T14:52:46.820Z,544.00
2023-02-12T14:53:46.822Z,544.00
2023-02-12T14:54:46.813Z,542.00
2023-02-12T14:55:46.826Z,545.00
2023-02-12T14:56:46.825Z,545.00
2023-02-12T14:57:46.812Z,547.00
2023-02-12T14:58:46.822Z,546.00
2023-02-12T14:59:46.865Z,545.00
2023-02-12T15:00:46.911Z,547.00
2023-02-12T15:01:47.028Z,546.00
2023-02-12T15:02:47.010Z,546.00
2023-02-12T15:03:47.060Z,546.00
2023-02-12T15:04:47.128Z,548.00
2023-02-12T15:05:47.160Z,544.00
2023-02-12T15:06:47.176Z,544.00
2023-02-12T15:07:47.213Z,544.00
2023-02-12T15:08:47.277Z,544.00
2023-02-12T15:09:47.341Z,542.00
2023-02-12T15:10:47.401Z,542.00
2023-02-12T15:11:47.472Z,543.00
2023-02-12T15:12:47.521Z,543.00
2023-02-12T15:13:47.557Z,544.00
2023-02-12T15:14:47.606Z,544.00
2023-02-12T15:15:47.668Z,544.00
2023-02-12T15:16:47.731Z,545.00
2023-02-12T15:17:47.786Z,545.00
2023-02-12T15:18:47.838Z,544.00
2023-02-12T15:19:47.897Z,545.00
2023-02-12T15:20:47.958Z,546.00
2023-02-12T15:21:48.016Z,546.00
2023-02-12T15:22:48.048Z,548.00
2023-02-12T15:23:48.094Z,548.00
2023-02-12T15:24:48.157Z,549.00
2023-02-12T15:25:48.200Z,549.00
2023-02-12T15:26:48.256Z,547.00
2023-02-12T15:27:48.286Z,546.00
2023-02-12T15:29:48.386Z,541.00
2023-02-12T15:30:48.497Z,541.00
2023-02-12T15:31:48.600Z,541.00
2023-02-12T15:32:48.491Z,539.00
2023-02-12T15:33:48.550Z,541.00
2023-02-12T15:34:48.613Z,541.00
2023-02-12T15:35:48.641Z,540.00
2023-02-12T15:36:48.682Z,542.00
2023-02-12T15:37:48.719Z,542.00
2023-02-12T15:38:48.754Z,545.00
2023-02-12T15:39:48.836Z,546.00
2023-02-12T15:40:48.888Z,546.00
2023-02-12T15:41:48.949Z,546.00
2023-02-12T15:42:49.017Z,541.00
2023-02-12T15:43:49.091Z,540.00
2023-02-12T15:44:49.138Z,543.00
2023-02-12T15:45:49.179Z,542.00
2023-02-12T15:46:49.318Z,540.00
2023-02-12T15:47:49.277Z,543.00
2023-02-12T15:48:49.300Z,543.00
2023-02-12T15:49:49.321Z,542.00
2023-02-12T15:50:49.348Z,543.00
2023-02-12T15:51:49.372Z,544.00
2023-02-12T15:52:49.405Z,544.00
2023-02-12T15:53:49.457Z,540.00
2023-02-12T15:54:49.515Z,537.00
2023-02-12T15:55:49.541Z,542.00
2023-02-12T15:56:49.590Z,541.00
2023-02-12T15:57:49.645Z,545.00
2023-02-12T15:58:49.679Z,546.00
2023-02-12T15:59:49.712Z,547.00
2023-02-12T16:00:49.795Z,544.00
2023-02-12T16:01:49.845Z,544.00
2023-02-12T16:02:49.835Z,545.00
2023-02-12T16:03:49.893Z,543.00
2023-02-12T16:04:49.907Z,543.00
2023-02-12T16:05:49.954Z,539.00
2023-02-12T16:06:49.984Z,537.00
2023-02-12T16:07:50.029Z,537.00
2023-02-12T16:08:50.094Z,533.00
2023-02-12T16:09:50.103Z,532.00
2023-02-12T16:10:50.142Z,532.00
2023-02-12T16:11:50.190Z,533.00
2023-02-12T16:12:50.236Z,533.00
2023-02-12T16:13:50.258Z,534.00
2023-02-12T16:14:50.290Z,536.00
2023-02-12T16:15:51.694Z,535.00
2023-02-12T16:16:50.327Z,536.00
2023-02-12T16:17:50.342Z,536.00
2023-02-12T16:18:50.360Z,536.00
2023-02-12T16:19:50.389Z,535.00
2023-02-12T16:20:50.428Z,536.00
2023-02-12T16:21:50.465Z,537.00
2023-02-12T16:22:50.508Z,541.00
2023-02-12T16:23:50.573Z,538.00
2023-02-12T16:24:50.613Z,539.00
2023-02-12T16:25:50.638Z,538.00
2023-02-12T16:26:50.693Z,537.00
2023-02-12T16:27:50.750Z,538.00
2023-02-12T16:28:50.817Z,538.00
2023-02-12T16:29:50.862Z,538.00
2023-02-12T16:30:50.916Z,541.00
2023-02-12T16:31:50.924Z,541.00
2023-02-12T16:32:50.964Z,542.00
2023-02-12T16:33:50.993Z,543.00
2023-02-12T16:34:51.024Z,544.00
2023-02-12T16:35:51.036Z,544.00
2023-02-12T16:36:51.068Z,541.00
2023-02-12T16:37:51.071Z,542.00
2023-02-12T16:38:51.160Z,539.00
2023-02-12T16:39:51.134Z,538.00
2023-02-12T16:40:51.173Z,534.00
2023-02-12T16:41:52.667Z,537.00
2023-02-12T16:42:51.216Z,537.00
2023-02-12T16:43:51.271Z,538.00
2023-02-12T16:44:51.281Z,538.00
2023-02-12T16:45:51.391Z,539.00
2023-02-12T16:46:51.314Z,542.00
2023-02-12T16:47:51.331Z,543.00
2023-02-12T16:48:51.341Z,543.00
2023-02-12T16:49:51.337Z,543.00
2023-02-12T16:50:51.400Z,545.00
2023-02-12T16:51:51.393Z,550.00
2023-02-12T16:52:51.403Z,549.00
2023-02-12T16:53:51.435Z,548.00
2023-02-12T16:54:51.479Z,547.00
2023-02-12T16:55:51.498Z,549.00
2023-02-12T16:56:51.521Z,548.00
2023-02-12T16:57:51.576Z,547.00
2023-02-12T16:58:51.592Z,544.00
2023-02-12T16:59:51.627Z,541.00
2023-02-12T17:00:51.692Z,541.00
2023-02-12T17:01:51.698Z,543.00
2023-02-12T17:02:51.757Z,542.00
2023-02-12T18:59:55.205Z,532.00
2023-02-12T19:00:55.556Z,533.00
2023-02-12T19:01:55.338Z,533.00
2023-02-12T19:02:55.279Z,531.00
2023-02-12T19:03:55.294Z,530.00
2023-02-12T19:04:55.363Z,530.00
2023-02-12T19:05:55.321Z,531.00
2023-02-12T19:06:55.348Z,530.00
2023-02-12T19:07:55.372Z,532.00
2023-02-12T19:08:55.395Z,530.00
2023-02-12T19:09:55.410Z,530.00
2023-02-12T19:10:55.693Z,524.00
2023-02-12T19:11:55.424Z,526.00
2023-02-12T19:12:55.465Z,528.00
2023-02-12T19:13:55.470Z,531.00
2023-02-12T19:14:55.493Z,533.00
2023-02-12T19:15:55.558Z,533.00
2023-02-12T19:16:55.517Z,534.00
2023-02-12T19:17:55.540Z,539.00
2023-02-12T19:18:55.554Z,541.00
2023-02-12T19:19:55.572Z,543.00
2023-02-12T19:20:55.899Z,543.00
2023-02-12T19:21:55.624Z,543.00
2023-02-12T19:22:55.639Z,539.00
2023-02-12T19:23:55.658Z,537.00
2023-02-12T19:24:55.672Z,535.00
2023-02-12T19:25:55.675Z,535.00
2023-02-12T19:26:55.709Z,535.00
2023-02-12T19:27:55.714Z,537.00
2023-02-12T19:28:55.733Z,540.00
2023-02-12T19:29:55.767Z,538.00
2023-02-12T19:30:56.141Z,536.00
2023-02-12T19:31:56.008Z,535.00
2023-02-12T19:32:55.814Z,532.00
2023-02-12T19:33:55.826Z,533.00
2023-02-12T19:34:55.844Z,536.00
2023-02-12T19:35:55.864Z,535.00
2023-02-12T19:36:55.868Z,535.00
2023-02-12T19:37:55.884Z,537.00
2023-02-12T19:38:55.923Z,538.00
2023-02-12T19:39:55.941Z,539.00
2023-02-12T19:40:56.277Z,539.00
2023-02-12T19:41:55.989Z,540.00
2023-02-12T19:42:55.987Z,540.00
2023-02-12T19:43:56.025Z,540.00
2023-02-12T19:44:56.043Z,541.00
2023-02-12T19:45:56.077Z,541.00
2023-02-12T19:46:56.070Z,540.00
2023-02-12T19:47:56.100Z,539.00
2023-02-12T19:48:56.148Z,539.00
2023-02-12T19:49:56.153Z,537.00
2023-02-12T19:50:56.517Z,537.00
2023-02-12T19:51:56.175Z,537.00
2023-02-12T19:52:56.204Z,537.00
2023-02-12T19:53:56.223Z,534.00
2023-02-12T19:54:56.272Z,533.00
2023-02-12T19:55:56.316Z,535.00
2023-02-12T19:56:56.361Z,536.00
2023-02-12T19:57:56.351Z,539.00
2023-02-12T19:58:56.373Z,537.00
2023-02-12T19:59:56.372Z,535.00
2023-02-12T20:00:56.672Z,538.00
2023-02-12T20:01:56.413Z,540.00
2023-02-12T20:02:56.435Z,539.00
2023-02-12T20:03:56.455Z,539.00
2023-02-12T20:04:56.469Z,538.00
2023-02-12T20:05:56.488Z,536.00
2023-02-12T20:06:56.514Z,539.00
2023-02-12T20:07:56.519Z,541.00
2023-02-12T20:08:56.542Z,539.00
2023-02-12T20:09:56.571Z,540.00
2023-02-12T20:10:56.880Z,538.00
2023-02-12T20:11:56.601Z,538.00
2023-02-12T20:12:56.676Z,540.00
2023-02-12T20:13:56.631Z,541.00
2023-02-12T20:14:56.653Z,540.00
2023-02-12T20:15:56.703Z,540.00
2023-02-12T20:16:56.670Z,543.00
2023-02-12T20:17:56.681Z,544.00
2023-02-12T20:18:56.707Z,545.00
2023-02-12T20:19:56.731Z,543.00
2023-02-12T20:20:57.157Z,541.00
2023-02-12T20:21:56.824Z,541.00
2023-02-12T20:22:56.834Z,541.00
2023-02-12T20:23:56.844Z,542.00
2023-02-12T20:24:56.873Z,540.00
2023-02-12T20:25:56.902Z,542.00
2023-02-12T20:26:56.928Z,540.00
2023-02-12T20:27:56.936Z,538.00
2023-02-12T20:28:56.966Z,539.00
2023-02-12T20:29:56.974Z,539.00
2023-02-12T20:30:57.377Z,538.00
2023-02-12T20:31:57.266Z,539.00
2023-02-12T20:32:57.056Z,540.00
2023-02-12T20:33:57.090Z,540.00
2023-02-12T20:34:57.156Z,535.00
2023-02-12T20:35:57.201Z,535.00
2023-02-12T20:36:57.224Z,537.00
2023-02-12T20:37:57.239Z,534.00
2023-02-12T20:38:57.277Z,532.00
2023-02-12T20:39:57.312Z,534.00
2023-02-12T20:40:57.782Z,533.00
2023-02-12T20:41:57.362Z,533.00
2023-02-12T20:42:57.377Z,533.00
2023-02-12T20:43:57.428Z,534.00
2023-02-12T20:44:57.427Z,533.00
2023-02-12T20:46:57.495Z,541.00
2023-02-12T20:47:57.523Z,539.00
2023-02-12T20:48:57.563Z,538.00
2023-02-12T20:49:57.576Z,539.00
2023-02-12T20:50:57.844Z,538.00
2023-02-12T20:51:57.613Z,535.00
2023-02-12T20:52:57.630Z,534.00
2023-02-12T20:53:57.669Z,531.00
2023-02-12T20:54:57.673Z,531.00
2023-02-12T20:55:57.699Z,531.00
2023-02-12T20:56:57.730Z,530.00
2023-02-12T20:57:57.764Z,528.00
2023-02-12T20:58:57.780Z,527.00
2023-02-12T20:59:57.797Z,526.00
2023-02-12T21:00:58.101Z,526.00
2023-02-12T21:01:57.868Z,528.00
2023-02-12T23:46:02.232Z,517.00
2023-02-12T23:49:02.279Z,520.00
2023-02-12T23:52:02.366Z,524.00
2023-02-12T23:53:02.393Z,525.00
2023-02-12T23:54:02.446Z,524.00
2023-02-12T23:55:02.474Z,523.00
2023-02-12T23:56:02.493Z,522.00
2023-02-12T23:57:02.530Z,523.00
2023-02-12T23:58:02.559Z,525.00
2023-02-12T23:59:02.587Z,524.00
